createdAt,value
2022-11-04T00:02:11.215Z,21.83
2022-11-04T00:04:39.382Z,23.88
2022-11-04T00:07:28.943Z,23.98
2022-11-04T00:09:57.586Z,21.05
2022-11-04T00:12:27.663Z,21.40
2022-11-04T00:15:15.880Z,16.17
2022-11-04T00:17:43.125Z,21.17
2022-11-04T00:20:29.548Z,27.27
2022-11-04T00:23:16.852Z,24.52
2022-11-04T00:26:01.909Z,25.45
2022-11-04T00:28:45.364Z,19.60
2022-11-04T00:31:30.677Z,17.20
2022-11-04T00:34:00.060Z,20.40
2022-11-04T00:36:28.572Z,25.35
2022-11-04T00:38:58.580Z,25.30
2022-11-04T00:41:30.473Z,21.75
2022-11-04T00:44:00.308Z,28.42
2022-11-04T00:46:29.231Z,23.85
2022-11-04T00:48:57.775Z,22.08
2022-11-04T00:51:26.590Z,25.02
2022-11-04T00:53:55.469Z,22.38
2022-11-04T00:56:25.296Z,28.40
2022-11-04T00:58:53.546Z,24.45
2022-11-04T01:01:22.015Z,26.17
2022-11-04T01:03:52.716Z,21.25
2022-11-04T01:06:23.967Z,29.75
2022-11-04T01:08:56.910Z,25.35
2022-11-04T01:11:28.545Z,28.17
2022-11-04T01:13:57.249Z,21.58
2022-11-04T01:19:00.370Z,24.33
2022-11-04T01:21:28.495Z,22.98
2022-11-04T01:23:56.736Z,23.75
2022-11-04T01:26:27.940Z,26.55
2022-11-04T01:28:57.600Z,23.85
2022-11-04T01:31:29.403Z,21.42
2022-11-04T01:33:58.176Z,16.23
2022-11-04T01:36:27.672Z,25.63
2022-11-04T01:38:57.567Z,21.15
2022-11-04T01:41:29.252Z,15.52
2022-11-04T01:43:59.762Z,20.27
2022-11-04T01:46:33.795Z,15.43
2022-11-04T01:49:05.839Z,15.75
2022-11-04T01:51:37.549Z,17.42
2022-11-04T01:54:07.801Z,22.63
2022-11-04T01:56:38.507Z,24.17
2022-11-04T01:59:10.669Z,16.77
2022-11-04T02:01:41.725Z,17.10
2022-11-04T02:04:25.535Z,13.05
2022-11-04T02:06:56.648Z,15.18
2022-11-04T02:09:31.335Z,15.85
2022-11-04T02:12:18.713Z,14.25
2022-11-04T02:14:51.060Z,11.23
2022-11-04T02:17:34.280Z,13.90
2022-11-04T02:20:26.233Z,20.15
2022-11-04T02:23:16.291Z,17.63
2022-11-04T02:26:18.348Z,16.17
2022-11-04T02:29:13.589Z,24.10
2022-11-04T02:31:47.799Z,15.23
2022-11-04T02:34:24.042Z,17.85
2022-11-04T02:37:00.006Z,22.42
2022-11-04T02:39:38.384Z,21.00
2022-11-04T02:42:14.349Z,14.80
2022-11-04T02:44:51.493Z,20.77
2022-11-04T02:47:25.567Z,17.48
2022-11-04T02:49:59.867Z,19.73
2022-11-04T02:52:32.500Z,16.85
2022-11-04T02:55:04.310Z,19.83
2022-11-04T02:57:37.008Z,20.17
2022-11-04T03:00:09.229Z,17.13
2022-11-04T03:02:41.968Z,17.58
2022-11-04T03:05:14.738Z,20.60
2022-11-04T03:07:45.304Z,17.05
2022-11-04T03:10:18.172Z,18.10
2022-11-04T03:12:51.612Z,24.25
2022-11-04T03:15:26.010Z,17.05
2022-11-04T03:18:11.087Z,21.30
2022-11-04T03:20:42.256Z,15.43
2022-11-04T03:23:14.282Z,14.20
2022-11-04T03:25:46.892Z,17.33
2022-11-04T03:28:26.259Z,19.15
2022-11-04T03:31:00.998Z,17.58
2022-11-04T03:33:41.191Z,16.48
2022-11-04T03:36:10.189Z,14.50
2022-11-04T03:38:39.433Z,11.32
2022-11-04T03:41:13.815Z,14.38
2022-11-04T03:43:43.080Z,14.65
2022-11-04T03:46:13.262Z,18.33
2022-11-04T03:48:41.951Z,15.07
2022-11-04T03:51:10.777Z,17.33
2022-11-04T03:53:39.271Z,19.25
2022-11-04T03:56:29.531Z,19.73
2022-11-04T03:59:13.466Z,13.05
2022-11-04T04:01:51.552Z,15.98
2022-11-04T04:04:28.289Z,14.95
2022-11-04T04:07:02.833Z,18.77
2022-11-04T04:09:40.492Z,19.20
2022-11-04T04:12:15.270Z,18.70
2022-11-04T04:14:47.882Z,14.82
2022-11-04T04:17:22.827Z,18.75
2022-11-04T04:19:55.557Z,16.02
2022-11-04T04:22:26.426Z,23.85
2022-11-04T04:25:14.953Z,16.35
2022-11-04T04:27:44.677Z,18.95
2022-11-04T04:30:15.155Z,22.90
2022-11-04T04:32:47.107Z,17.33
2022-11-04T04:35:33.242Z,14.88
2022-11-04T04:38:18.090Z,22.27
2022-11-04T04:41:09.354Z,19.67
2022-11-04T04:43:57.106Z,18.25
2022-11-04T04:46:25.966Z,21.58
2022-11-04T04:48:55.681Z,24.40
2022-11-04T04:51:24.393Z,20.58
2022-11-04T04:53:52.504Z,20.48
2022-11-04T04:56:20.876Z,22.30
2022-11-04T04:58:49.096Z,18.05
2022-11-04T05:01:17.333Z,20.02
2022-11-04T05:03:45.675Z,20.05
2022-11-04T05:06:15.443Z,15.23
2022-11-04T05:08:43.630Z,15.30
2022-11-04T05:11:11.842Z,16.08
2022-11-04T05:13:39.735Z,19.58
2022-11-04T05:16:09.848Z,15.45
2022-11-04T05:18:38.317Z,16.80
2022-11-04T05:21:07.089Z,14.50
2022-11-04T05:23:37.068Z,15.63
2022-11-04T05:26:05.302Z,18.35
2022-11-04T05:28:33.652Z,13.20
2022-11-04T05:31:04.326Z,11.98
2022-11-04T05:33:32.650Z,13.80
2022-11-04T05:36:07.984Z,17.10
2022-11-04T05:38:37.982Z,12.15
2022-11-04T05:41:06.223Z,17.33
2022-11-04T05:43:34.752Z,12.38
2022-11-04T05:46:03.023Z,20.33
2022-11-04T05:48:35.125Z,12.90
2022-11-04T05:51:05.999Z,15.48
2022-11-04T05:53:33.836Z,17.27
2022-11-04T05:56:03.075Z,15.27
2022-11-04T05:58:31.235Z,15.38
2022-11-04T06:01:13.234Z,13.43
2022-11-04T06:03:41.495Z,15.95
2022-11-04T06:06:09.383Z,13.73
2022-11-04T06:08:41.088Z,15.55
2022-11-04T06:11:13.657Z,20.60
2022-11-04T06:13:41.595Z,17.58
2022-11-04T06:16:09.665Z,15.88
2022-11-04T06:18:37.790Z,14.50
2022-11-04T06:21:22.523Z,14.40
2022-11-04T06:23:50.463Z,21.52
2022-11-04T06:26:25.135Z,17.55
2022-11-04T06:28:55.211Z,18.00
2022-11-04T06:31:23.126Z,13.30
2022-11-04T06:33:51.048Z,18.92
2022-11-04T06:36:19.018Z,16.25
2022-11-04T06:38:46.939Z,18.52
2022-11-04T06:41:17.052Z,18.65
2022-11-04T06:43:46.392Z,17.65
2022-11-04T06:46:28.894Z,18.20
2022-11-04T06:48:57.980Z,13.88
2022-11-04T06:51:26.692Z,14.70
2022-11-04T06:53:55.084Z,12.77
2022-11-04T06:56:23.200Z,12.73
2022-11-04T06:58:53.411Z,15.80
2022-11-04T07:01:23.179Z,11.32
2022-11-04T07:03:52.655Z,9.45
2022-11-04T07:06:21.422Z,15.88
2022-11-04T07:08:50.225Z,15.38
2022-11-04T07:11:18.896Z,15.63
2022-11-04T07:13:46.875Z,12.63
2022-11-04T07:16:16.713Z,17.88
2022-11-04T07:18:44.597Z,13.68
2022-11-04T07:21:13.472Z,17.05
2022-11-04T07:23:41.400Z,11.38
2022-11-04T07:26:11.484Z,12.38
2022-11-04T07:28:40.035Z,11.80
2022-11-04T07:31:09.694Z,9.02
2022-11-04T07:33:39.004Z,12.85
2022-11-04T07:36:08.633Z,13.60
2022-11-04T07:38:36.541Z,11.50
2022-11-04T07:41:04.547Z,8.63
2022-11-04T07:43:32.541Z,11.68
2022-11-04T07:46:01.597Z,16.90
2022-11-04T07:48:29.447Z,11.13
2022-11-04T07:51:00.351Z,6.40
2022-11-04T07:53:28.892Z,15.98
2022-11-04T07:55:56.906Z,7.82
2022-11-04T07:58:25.644Z,11.40
2022-11-04T08:00:59.900Z,12.00
2022-11-04T08:03:27.996Z,8.20
2022-11-04T08:05:57.529Z,7.70
2022-11-04T08:08:27.119Z,8.65
2022-11-04T08:10:57.616Z,8.45
2022-11-04T08:13:29.064Z,6.15
2022-11-04T08:15:57.810Z,11.23
2022-11-04T08:18:25.694Z,11.52
2022-11-04T08:20:54.280Z,8.45
2022-11-04T08:23:22.231Z,9.93
2022-11-04T08:25:51.485Z,9.60
2022-11-04T08:28:19.391Z,8.75
2022-11-04T08:30:57.983Z,8.95
2022-11-04T08:33:26.707Z,8.90
2022-11-04T08:35:55.820Z,7.65
2022-11-04T08:38:24.471Z,7.63
2022-11-04T08:40:59.457Z,6.97
2022-11-04T08:43:28.139Z,7.57
2022-11-04T08:45:56.441Z,8.88
2022-11-04T08:48:24.523Z,8.63
2022-11-04T08:50:53.675Z,6.30
2022-11-04T08:53:21.729Z,8.85
2022-11-04T08:55:49.977Z,6.57
2022-11-04T08:58:19.491Z,9.05
2022-11-04T09:00:47.479Z,6.85
2022-11-04T09:03:15.322Z,7.05
2022-11-04T09:05:45.837Z,8.23
2022-11-04T09:08:14.257Z,8.55
2022-11-04T09:10:43.717Z,6.15
2022-11-04T09:13:12.486Z,8.63
2022-11-04T09:15:42.064Z,6.07
2022-11-04T09:18:10.368Z,7.22
2022-11-04T09:20:39.532Z,6.78
2022-11-04T09:23:08.147Z,8.32
2022-11-04T09:25:36.502Z,6.65
2022-11-04T09:28:04.753Z,7.65
2022-11-04T09:30:32.719Z,9.57
2022-11-04T09:33:02.096Z,10.88
2022-11-04T09:35:30.727Z,8.10
2022-11-04T09:38:00.679Z,9.32
2022-11-04T09:40:29.113Z,9.35
2022-11-04T09:43:11.624Z,9.30
2022-11-04T09:45:42.640Z,11.05
2022-11-04T09:48:20.696Z,15.23
2022-11-04T09:50:53.637Z,8.35
2022-11-04T09:53:27.427Z,7.22
2022-11-04T09:55:58.481Z,8.02
2022-11-04T09:58:26.328Z,9.40
2022-11-04T10:00:59.700Z,8.38
2022-11-04T10:03:49.254Z,10.50
2022-11-04T10:06:35.684Z,6.10
2022-11-04T10:09:17.300Z,5.28
2022-11-04T10:12:01.402Z,8.25
2022-11-04T10:14:52.756Z,9.98
2022-11-04T10:17:35.031Z,7.43
2022-11-04T10:20:25.980Z,6.05
2022-11-04T10:22:59.273Z,10.40
2022-11-04T10:25:33.455Z,9.35
2022-11-04T10:28:02.188Z,7.32
2022-11-04T10:30:32.066Z,9.77
2022-11-04T10:33:07.883Z,8.70
2022-11-04T10:35:41.904Z,7.60
2022-11-04T10:38:17.627Z,8.63
2022-11-04T10:40:50.069Z,7.82
2022-11-04T10:43:25.276Z,8.35
2022-11-04T10:46:01.107Z,8.35
2022-11-04T10:48:35.504Z,8.30
2022-11-04T10:51:06.764Z,11.25
2022-11-04T10:53:36.235Z,7.15
2022-11-04T10:56:09.487Z,7.50
2022-11-04T10:58:43.892Z,9.20
2022-11-04T11:01:26.815Z,8.27
2022-11-04T11:03:55.657Z,7.13
2022-11-04T11:06:29.308Z,8.23
2022-11-04T11:09:00.397Z,9.35
2022-11-04T11:11:52.574Z,9.50
2022-11-04T11:14:32.324Z,9.35
2022-11-04T11:17:20.053Z,10.10
2022-11-04T11:19:52.196Z,8.07
2022-11-04T11:22:37.500Z,9.77
2022-11-04T11:25:22.220Z,8.00
2022-11-04T11:27:52.695Z,5.65
2022-11-04T11:30:23.276Z,9.43
2022-11-04T11:32:55.982Z,8.90
2022-11-04T11:35:28.288Z,5.57
2022-11-04T11:37:58.659Z,9.95
2022-11-04T11:40:31.629Z,10.60
2022-11-04T11:43:01.155Z,9.05
2022-11-04T11:45:30.109Z,5.20
2022-11-04T11:47:58.124Z,6.60
2022-11-04T11:50:32.656Z,6.97
2022-11-04T11:53:15.969Z,8.95
2022-11-04T11:55:49.719Z,8.23
2022-11-04T12:01:25.529Z,7.70
2022-11-04T12:09:50.740Z,10.95
2022-11-04T12:12:39.037Z,6.50
2022-11-04T12:15:24.467Z,6.47
2022-11-04T12:18:02.979Z,9.35
2022-11-04T12:20:47.247Z,7.13
2022-11-04T12:23:22.010Z,10.77
2022-11-04T12:26:05.283Z,10.10
2022-11-04T12:28:45.975Z,9.75
2022-11-04T12:31:28.199Z,9.27
2022-11-04T12:34:06.173Z,7.70
2022-11-04T12:36:52.256Z,8.07
2022-11-04T12:39:29.570Z,9.60
2022-11-04T12:42:21.916Z,9.02
2022-11-04T12:45:01.656Z,7.68
2022-11-04T12:47:37.513Z,7.97
2022-11-04T12:50:24.671Z,8.75
2022-11-04T12:53:23.196Z,9.45
2022-11-04T12:55:56.555Z,6.35
2022-11-04T12:58:37.627Z,8.27
2022-11-04T13:01:15.162Z,7.03
2022-11-04T13:03:49.793Z,9.27
2022-11-04T13:06:20.692Z,11.88
2022-11-04T13:08:53.340Z,8.70
2022-11-04T13:11:24.563Z,6.45
2022-11-04T13:14:02.312Z,11.23
2022-11-04T13:16:32.781Z,7.20
2022-11-04T13:19:01.999Z,9.95
2022-11-04T13:21:36.506Z,7.15
2022-11-04T13:24:07.107Z,6.43
2022-11-04T13:26:35.123Z,13.02
2022-11-04T13:29:09.270Z,10.73
2022-11-04T13:31:48.110Z,8.30
2022-11-04T13:34:25.297Z,4.45
2022-11-04T13:37:05.905Z,6.82
2022-11-04T13:39:37.793Z,7.72
2022-11-04T13:42:36.731Z,7.60
2022-11-04T13:45:14.219Z,9.90
2022-11-04T13:47:50.498Z,7.78
2022-11-04T13:50:36.692Z,10.20
2022-11-04T13:53:06.903Z,7.65
2022-11-04T13:55:36.009Z,6.28
2022-11-04T13:58:06.233Z,8.98
2022-11-04T14:00:37.474Z,11.25
2022-11-04T14:03:37.858Z,6.63
2022-11-04T14:06:08.823Z,5.43
2022-11-04T14:08:36.784Z,9.68
2022-11-04T14:11:12.929Z,8.45
2022-11-04T14:13:46.361Z,7.45
2022-11-04T14:16:40.946Z,7.38
2022-11-04T14:19:55.924Z,13.77
2022-11-04T14:22:31.993Z,5.70
2022-11-04T14:25:01.827Z,7.35
2022-11-04T14:27:39.464Z,10.85
2022-11-04T14:30:09.083Z,8.77
2022-11-04T14:32:42.721Z,10.45
2022-11-04T14:35:19.380Z,12.98
2022-11-04T14:37:56.059Z,11.35
2022-11-04T14:40:26.550Z,11.05
2022-11-04T14:42:56.869Z,6.72
2022-11-04T14:45:27.926Z,8.80
2022-11-04T14:48:01.489Z,8.43
2022-11-04T14:50:29.865Z,9.13
2022-11-04T14:53:00.011Z,8.48
2022-11-04T14:55:30.423Z,8.18
2022-11-04T14:58:19.886Z,7.32
2022-11-04T15:00:55.810Z,5.93
2022-11-04T15:06:35.269Z,9.02
2022-11-04T15:09:22.044Z,8.57
2022-11-04T15:12:07.412Z,8.70
2022-11-04T15:14:38.325Z,13.15
2022-11-04T15:17:06.360Z,9.13
2022-11-04T15:19:37.133Z,6.40
2022-11-04T15:22:07.593Z,8.75
2022-11-04T15:24:36.373Z,11.25
2022-11-04T15:27:06.913Z,8.60
2022-11-04T15:29:34.848Z,7.80
2022-11-04T15:32:05.639Z,10.50
2022-11-04T15:34:36.920Z,10.70
2022-11-04T15:37:06.784Z,12.82
2022-11-04T15:39:37.419Z,9.30
2022-11-04T15:42:29.366Z,10.80
2022-11-04T15:44:57.450Z,7.97
2022-11-04T15:47:28.728Z,8.00
2022-11-04T15:50:16.628Z,9.80
2022-11-04T15:52:51.325Z,10.52
2022-11-04T15:55:21.817Z,11.98
2022-11-04T15:57:50.516Z,9.85
2022-11-04T16:00:31.316Z,10.55
2022-11-04T16:03:00.602Z,8.75
2022-11-04T16:05:33.256Z,10.10
2022-11-04T16:08:20.295Z,17.33
2022-11-04T16:10:48.956Z,11.70
2022-11-04T16:13:25.720Z,10.20
2022-11-04T16:16:09.321Z,10.85
2022-11-04T16:18:41.902Z,7.90
2022-11-04T16:21:15.709Z,13.95
2022-11-04T16:23:47.208Z,14.73
2022-11-04T16:26:15.700Z,11.80
2022-11-04T16:28:44.179Z,8.38
2022-11-04T16:31:28.423Z,10.38
2022-11-04T16:33:56.495Z,8.30
2022-11-04T16:36:29.715Z,11.15
2022-11-04T16:39:03.761Z,9.55
2022-11-04T16:41:36.502Z,11.65
2022-11-04T16:44:07.045Z,9.27
2022-11-04T16:46:35.083Z,11.48
2022-11-04T16:49:03.076Z,9.25
2022-11-04T16:51:34.715Z,10.90
2022-11-04T16:54:02.684Z,8.90
2022-11-04T16:56:30.943Z,9.25
2022-11-04T16:58:58.947Z,12.48
2022-11-04T17:01:26.966Z,10.30
2022-11-04T17:03:54.873Z,6.28
2022-11-04T17:06:22.906Z,10.07
2022-11-04T17:08:53.288Z,9.82
2022-11-04T17:11:21.203Z,8.63
2022-11-04T17:13:49.312Z,10.13
2022-11-04T17:16:17.181Z,9.90
2022-11-04T17:18:45.032Z,10.95
2022-11-04T17:21:17.077Z,6.72
2022-11-04T17:23:44.963Z,8.43
2022-11-04T17:26:14.655Z,8.50
2022-11-04T17:28:42.561Z,15.95
2022-11-04T17:31:17.510Z,11.20
2022-11-04T17:33:45.588Z,12.25
2022-11-04T17:36:18.052Z,9.93
2022-11-04T17:38:46.170Z,9.35
2022-11-04T17:41:33.025Z,7.68
2022-11-04T17:44:01.209Z,8.45
2022-11-04T17:46:35.714Z,6.63
2022-11-04T17:49:06.461Z,10.80
2022-11-04T17:51:34.431Z,9.55
2022-11-04T17:54:02.476Z,8.60
2022-11-04T17:56:32.291Z,5.20
2022-11-04T17:59:01.995Z,12.02
2022-11-04T18:01:30.012Z,9.80
2022-11-04T18:03:58.213Z,10.20
2022-11-04T18:06:27.871Z,12.20
2022-11-04T18:08:56.650Z,13.43
2022-11-04T18:11:43.251Z,10.95
2022-11-04T18:14:16.864Z,12.35
2022-11-04T18:16:47.490Z,12.77
2022-11-04T18:19:15.929Z,10.77
2022-11-04T18:21:43.961Z,10.93
2022-11-04T18:24:12.799Z,11.57
2022-11-04T18:26:41.377Z,8.75
2022-11-04T18:29:09.780Z,8.77
2022-11-04T18:31:47.804Z,10.30
2022-11-04T18:34:19.594Z,9.20
2022-11-04T18:36:50.880Z,9.45
2022-11-04T18:39:20.284Z,5.60
2022-11-04T18:41:48.908Z,11.57
2022-11-04T18:44:19.535Z,11.23
2022-11-04T18:46:49.289Z,9.05
2022-11-04T18:49:18.554Z,10.20
2022-11-04T18:51:46.460Z,9.90
2022-11-04T18:54:15.178Z,8.50
2022-11-04T18:56:43.883Z,5.80
2022-11-04T18:59:12.956Z,7.55
2022-11-04T19:01:42.141Z,6.07
2022-11-04T19:04:13.109Z,3.80
2022-11-04T19:06:43.371Z,4.97
2022-11-04T19:09:40.608Z,5.05
2022-11-04T19:12:18.752Z,7.38
2022-11-04T19:14:46.691Z,6.65
2022-11-04T19:17:14.992Z,5.03
2022-11-04T19:19:44.417Z,4.85
2022-11-04T19:22:12.898Z,5.78
2022-11-04T19:24:40.949Z,3.75
2022-11-04T19:27:08.873Z,4.32
2022-11-04T19:29:37.022Z,5.10
2022-11-04T19:32:12.809Z,3.25
2022-11-04T19:34:42.143Z,4.35
2022-11-04T19:37:11.910Z,4.72
2022-11-04T19:39:40.453Z,4.93
2022-11-04T19:42:26.012Z,5.97
2022-11-04T19:44:54.228Z,5.50
2022-11-04T19:47:22.155Z,6.75
2022-11-04T19:49:50.179Z,5.18
2022-11-04T19:52:20.216Z,6.40
2022-11-04T19:54:48.084Z,7.90
2022-11-04T19:57:16.489Z,7.53
2022-11-04T19:59:44.533Z,7.13
2022-11-04T20:02:15.651Z,5.72
2022-11-04T20:04:43.527Z,6.10
2022-11-04T20:07:11.433Z,6.43
2022-11-04T20:09:40.905Z,7.80
2022-11-04T20:12:26.238Z,4.70
2022-11-04T20:14:56.956Z,6.97
2022-11-04T20:17:25.266Z,4.70
2022-11-04T20:19:53.177Z,2.97
2022-11-04T20:22:21.079Z,9.77
2022-11-04T20:24:50.589Z,4.32
2022-11-04T20:27:18.436Z,5.43
2022-11-04T20:29:46.359Z,7.47
2022-11-04T20:32:14.215Z,5.28
2022-11-04T20:34:42.244Z,4.07
2022-11-04T20:37:11.763Z,3.53
2022-11-04T20:39:39.930Z,5.90
2022-11-04T20:42:09.198Z,4.38
2022-11-04T20:44:37.231Z,5.28
2022-11-04T20:47:05.203Z,4.78
2022-11-04T20:49:33.213Z,4.22
2022-11-04T20:52:01.504Z,6.07
2022-11-04T20:54:29.534Z,5.28
2022-11-04T20:56:57.486Z,6.57
2022-11-04T20:59:27.506Z,5.30
2022-11-04T21:01:55.748Z,4.75
2022-11-04T21:04:24.677Z,5.20
2022-11-04T21:06:52.951Z,5.18
2022-11-04T21:09:22.607Z,4.30
2022-11-04T21:11:51.379Z,5.00
2022-11-04T21:14:20.351Z,4.15
2022-11-04T21:16:49.623Z,3.65
2022-11-04T21:19:17.843Z,3.08
2022-11-04T21:21:47.172Z,3.33
2022-11-04T21:24:16.419Z,7.95
2022-11-04T21:26:45.640Z,5.07
2022-11-04T21:29:16.607Z,6.13
2022-11-04T21:31:45.428Z,11.93
2022-11-04T21:34:15.207Z,5.85
2022-11-04T21:36:43.531Z,9.07
2022-11-04T21:39:13.210Z,6.13
2022-11-04T21:41:41.216Z,7.47
2022-11-04T21:44:12.728Z,4.32
2022-11-04T21:46:40.797Z,3.40
2022-11-04T21:49:08.844Z,2.60
2022-11-04T21:51:38.047Z,3.92
2022-11-04T21:54:07.948Z,3.85
2022-11-04T21:56:35.916Z,9.20
2022-11-04T21:59:04.920Z,3.67
2022-11-04T22:01:33.607Z,5.60
2022-11-04T22:04:02.901Z,2.80
2022-11-04T22:06:35.062Z,3.60
2022-11-04T22:09:06.532Z,6.30
2022-11-04T22:11:36.528Z,5.10
2022-11-04T22:14:06.715Z,4.72
2022-11-04T22:16:36.140Z,6.53
2022-11-04T22:19:06.029Z,4.70
2022-11-04T22:21:39.322Z,4.93
2022-11-04T22:24:11.542Z,4.82
2022-11-04T22:26:40.306Z,4.10
2022-11-04T22:29:08.363Z,4.32
2022-11-04T22:31:38.007Z,5.68
2022-11-04T22:34:09.868Z,5.28
2022-11-04T22:36:38.251Z,3.78
2022-11-04T22:39:10.520Z,3.05
2022-11-04T22:41:43.508Z,4.95
2022-11-04T22:44:11.395Z,3.58
2022-11-04T22:46:39.920Z,4.38
2022-11-04T22:49:08.228Z,4.45
2022-11-04T22:51:36.076Z,5.53
2022-11-04T22:54:08.212Z,4.93
2022-11-04T22:56:36.995Z,4.93
2022-11-04T22:59:06.499Z,7.03
2022-11-04T23:01:34.658Z,5.30
2022-11-04T23:04:03.111Z,4.18
2022-11-04T23:06:33.558Z,4.18
2022-11-04T23:09:01.780Z,4.78
2022-11-04T23:11:48.916Z,2.67
2022-11-04T23:14:37.518Z,7.07
2022-11-04T23:17:32.975Z,5.35
2022-11-04T23:20:03.658Z,3.53
2022-11-04T23:22:48.839Z,3.05
2022-11-04T23:25:16.980Z,5.22
2022-11-04T23:28:05.367Z,7.25
2022-11-04T23:30:36.744Z,5.72
2022-11-04T23:33:06.865Z,4.95
2022-11-04T23:35:55.217Z,4.78
2022-11-04T23:38:23.581Z,2.85
2022-11-04T23:41:06.503Z,4.72
2022-11-04T23:43:34.663Z,4.05
2022-11-04T23:46:21.744Z,5.75
2022-11-04T23:49:21.806Z,3.85
2022-11-04T23:52:07.039Z,5.43
2022-11-04T23:54:52.204Z,6.88
2022-11-04T23:57:37.800Z,3.90
